Bettina K — PBEW — position and weather

sailwx.info

Track history (hours):
 
Tides and Currents Weather Stations Pressure Air Temp Water Temp Dewpoint Dewpoint Depression Visibility Wind Speed Wind Dir Waves Ship Positions

Bettina K

Last reported at 2014-Sep-02 17:16 UTC. Time now 2014-Sep-03 04:56 UTC.
Position N 37°51' E 024°36'.

Length 88 m; draft 5.5 m.

Type: Cargo ship. MMSI: 246193000.

Date/timePositionNaut miles runAvg speedWind from/ knotsBaromVisibWave heightAir tempDewpointWater temp
2014-Sep-02 17:16N 37°51' E 024°36'7 9.2
2014-Sep-02 16:32N 37°44' E 024°33'9 9.2
2014-Sep-02 15:33N 37°36' E 024°28'12 9.4
2014-Sep-02 14:20N 37°27' E 024°19'7 8.9
2014-Sep-02 13:33N 37°22' E 024°13'27 9.0
2014-Sep-02 10:33N 36°60' E 023°54'10 9.2
2014-Sep-02 09:28N 36°51' E 023°47'51 8.7
2014-Sep-02 03:33N 36°24' E 022°53'39710.1
2014-Aug-31 12:08N 36°40' E 014°39'910.7
2014-Aug-31 11:20N 36°42' E 014°29'810.5
2014-Aug-31 10:33N 36°44' E 014°19'1010.4
2014-Aug-31 09:33N 36°46' E 014°06'1010.2
2014-Aug-31 08:33N 36°48' E 013°54'13010.0
2014-Aug-30 19:33N 37°21' E 011°16'10 9.5
2014-Aug-30 18:29N 37°23' E 011°03'9 9.5
2014-Aug-30 17:34N 37°25' E 010°53'10 9.7
2014-Aug-30 16:34N 37°28' E 010°41'10 9.8
2014-Aug-30 15:34N 37°31' E 010°29'10 9.9
2014-Aug-30 14:34N 37°33' E 010°17'1010.0
2014-Aug-30 13:34N 37°35' E 010°05'1010.1
2014-Aug-30 12:34N 37°35' E 009°52'1010.1
2014-Aug-30 11:33N 37°36' E 009°39'1010.1
2014-Aug-30 10:34N 37°36' E 009°27'1010.1
2014-Aug-30 09:34N 37°36' E 009°14'10 9.9
2014-Aug-30 08:33N 37°36' E 009°01'10 9.8
2014-Aug-30 07:33N 37°36' E 008°49'1010.1
2014-Aug-30 06:33N 37°34' E 008°36'1010.3
2014-Aug-30 05:33N 37°33' E 008°24'1010.0
2014-Aug-30 04:33N 37°31' E 008°11'1210.0
2014-Aug-30 03:18N 37°29' E 007°55'7 9.9
2014-Aug-30 02:33N 37°29' E 007°46'10 9.9
2014-Aug-30 01:33N 37°27' E 007°34'1310.1
2014-Aug-30 00:16N 37°25' E 007°18'77 9.6
2014-Aug-29 16:14N 37°13' E 005°42'6 8.4
2014-Aug-29 15:32N 37°12' E 005°35'9 9.2
2014-Aug-29 14:33N 37°10' E 005°23'9 9.1
2014-Aug-29 13:33N 37°09' E 005°12'9 9.3
2014-Aug-29 12:33N 37°08' E 005°01'10 9.8
2014-Aug-29 11:33N 37°07' E 004°48'1110.1
2014-Aug-29 10:28N 37°06' E 004°35'910.2
2014-Aug-29 09:33N 37°04' E 004°23'1010.2
2014-Aug-29 08:33N 37°03' E 004°11'1410.5
2014-Aug-29 07:13N 37°01' E 003°53'710.4
2014-Aug-29 06:33N 36°60' E 003°45'10 9.9
2014-Aug-29 05:33N 36°59' E 003°32'9 9.5
2014-Aug-29 04:33N 36°58' E 003°21'9 9.5
2014-Aug-29 03:33N 36°56' E 003°09'1010.1
2014-Aug-29 02:33N 36°55' E 002°57'1010.2
2014-Aug-29 01:33N 36°54' E 002°44'2210.8
2014-Aug-28 23:32N 36°50' E 002°17'1110.8
2014-Aug-28 22:33N 36°48' E 002°04'1110.6
2014-Aug-28 21:32N 36°45' E 001°51'1110.7
2014-Aug-28 20:33N 36°43' E 001°38'1110.9
2014-Aug-28 19:32N 36°41' E 001°24'1110.9
2014-Aug-28 18:33N 36°39' E 001°11'1010.5
2014-Aug-28 17:34N 36°38' E 000°58'9 8.1
2014-Aug-28 16:26N 36°37' E 000°47'910.4
2014-Aug-28 15:33N 36°37' E 000°36'1110.6
2014-Aug-28 14:33N 36°35' E 000°23'2110.2
2014-Aug-28 12:32N 36°33' W 000°03'9 9.6
2014-Aug-28 11:33N 36°31' W 000°14'10 9.4
2014-Aug-28 10:30N 36°30' W 000°26'9 9.3
2014-Aug-28 09:33N 36°29' W 000°37'11 9.6
2014-Aug-28 08:24N 36°27' W 000°51'8 9.5
2014-Aug-28 07:33N 36°26' W 001°01'1010.0
2014-Aug-28 06:33N 36°24' W 001°13'10 9.9
2014-Aug-28 05:32N 36°23' W 001°25'19010.3
2014-Aug-27 11:04N 35°54' W 005°18'0 0.0
2014-Aug-27 09:31N 35°54' W 005°18'0 0.0
2014-Aug-27 08:32N 35°54' W 005°18'3 3.0
2014-Aug-27 07:33N 35°56' W 005°20'212 9.5
2014-Aug-26 09:24N 36°52' W 009°34'  
Track history (hours):
 
Tides and Currents Weather Stations Pressure Air Temp Water Temp Dewpoint Dewpoint Depression Visibility Wind Speed Wind Dir Waves Ship Positions

Bettina K

Last reported at 2014-Sep-02 17:16 UTC. Time now 2014-Sep-03 04:56 UTC.
Position N 37°51' E 024°36'.

Length 88 m; draft 5.5 m.

Type: Cargo ship. MMSI: 246193000.

Date/timePositionNaut miles runAvg speedWind from/ knotsBaromVisibWave heightAir tempDewpointWater temp
2014-Sep-02 17:16N 37°51' E 024°36'7 9.2
2014-Sep-02 16:32N 37°44' E 024°33'9 9.2
2014-Sep-02 15:33N 37°36' E 024°28'12 9.4
2014-Sep-02 14:20N 37°27' E 024°19'7 8.9
2014-Sep-02 13:33N 37°22' E 024°13'27 9.0
2014-Sep-02 10:33N 36°60' E 023°54'10 9.2
2014-Sep-02 09:28N 36°51' E 023°47'51 8.7
2014-Sep-02 03:33N 36°24' E 022°53'39710.1
2014-Aug-31 12:08N 36°40' E 014°39'910.7
2014-Aug-31 11:20N 36°42' E 014°29'810.5
2014-Aug-31 10:33N 36°44' E 014°19'1010.4
2014-Aug-31 09:33N 36°46' E 014°06'1010.2
2014-Aug-31 08:33N 36°48' E 013°54'13010.0
2014-Aug-30 19:33N 37°21' E 011°16'10 9.5
2014-Aug-30 18:29N 37°23' E 011°03'9 9.5
2014-Aug-30 17:34N 37°25' E 010°53'10 9.7
2014-Aug-30 16:34N 37°28' E 010°41'10 9.8
2014-Aug-30 15:34N 37°31' E 010°29'10 9.9
2014-Aug-30 14:34N 37°33' E 010°17'1010.0
2014-Aug-30 13:34N 37°35' E 010°05'1010.1
2014-Aug-30 12:34N 37°35' E 009°52'1010.1
2014-Aug-30 11:33N 37°36' E 009°39'1010.1
2014-Aug-30 10:34N 37°36' E 009°27'1010.1
2014-Aug-30 09:34N 37°36' E 009°14'10 9.9
2014-Aug-30 08:33N 37°36' E 009°01'10 9.8
2014-Aug-30 07:33N 37°36' E 008°49'1010.1
2014-Aug-30 06:33N 37°34' E 008°36'1010.3
2014-Aug-30 05:33N 37°33' E 008°24'1010.0
2014-Aug-30 04:33N 37°31' E 008°11'1210.0
2014-Aug-30 03:18N 37°29' E 007°55'7 9.9
2014-Aug-30 02:33N 37°29' E 007°46'10 9.9
2014-Aug-30 01:33N 37°27' E 007°34'1310.1
2014-Aug-30 00:16N 37°25' E 007°18'77 9.6
2014-Aug-29 16:14N 37°13' E 005°42'6 8.4
2014-Aug-29 15:32N 37°12' E 005°35'9 9.2
2014-Aug-29 14:33N 37°10' E 005°23'9 9.1
2014-Aug-29 13:33N 37°09' E 005°12'9 9.3
2014-Aug-29 12:33N 37°08' E 005°01'10 9.8
2014-Aug-29 11:33N 37°07' E 004°48'1110.1
2014-Aug-29 10:28N 37°06' E 004°35'910.2
2014-Aug-29 09:33N 37°04' E 004°23'1010.2
2014-Aug-29 08:33N 37°03' E 004°11'1410.5
2014-Aug-29 07:13N 37°01' E 003°53'710.4
2014-Aug-29 06:33N 36°60' E 003°45'10 9.9
2014-Aug-29 05:33N 36°59' E 003°32'9 9.5
2014-Aug-29 04:33N 36°58' E 003°21'9 9.5
2014-Aug-29 03:33N 36°56' E 003°09'1010.1
2014-Aug-29 02:33N 36°55' E 002°57'1010.2
2014-Aug-29 01:33N 36°54' E 002°44'2210.8
2014-Aug-28 23:32N 36°50' E 002°17'1110.8
2014-Aug-28 22:33N 36°48' E 002°04'1110.6
2014-Aug-28 21:32N 36°45' E 001°51'1110.7
2014-Aug-28 20:33N 36°43' E 001°38'1110.9
2014-Aug-28 19:32N 36°41' E 001°24'1110.9
2014-Aug-28 18:33N 36°39' E 001°11'1010.5
2014-Aug-28 17:34N 36°38' E 000°58'9 8.1
2014-Aug-28 16:26N 36°37' E 000°47'910.4
2014-Aug-28 15:33N 36°37' E 000°36'1110.6
2014-Aug-28 14:33N 36°35' E 000°23'2110.2
2014-Aug-28 12:32N 36°33' W 000°03'9 9.6
2014-Aug-28 11:33N 36°31' W 000°14'10 9.4
2014-Aug-28 10:30N 36°30' W 000°26'9 9.3
2014-Aug-28 09:33N 36°29' W 000°37'11 9.6
2014-Aug-28 08:24N 36°27' W 000°51'8 9.5
2014-Aug-28 07:33N 36°26' W 001°01'1010.0
2014-Aug-28 06:33N 36°24' W 001°13'10 9.9
2014-Aug-28 05:32N 36°23' W 001°25'19010.3
2014-Aug-27 11:04N 35°54' W 005°18'0 0.0
2014-Aug-27 09:31N 35°54' W 005°18'0 0.0
2014-Aug-27 08:32N 35°54' W 005°18'3 3.0
2014-Aug-27 07:33N 35°56' W 005°20'212 9.5
2014-Aug-26 09:24N 36°52' W 009°34'  

Dump ship's entire track history